createdAt,value
2023-04-04T00:04:13.837Z,6.8
2023-04-04T00:10:05.376Z,6.8
2023-04-04T00:15:41.989Z,6.8
2023-04-04T00:21:18.954Z,6.8
2023-04-04T00:27:11.085Z,6.8
2023-04-04T00:33:02.781Z,6.9
2023-04-04T00:38:38.669Z,6.9
2023-04-04T00:44:30.087Z,6.9
2023-04-04T00:50:07.376Z,6.9
2023-04-04T00:55:59.537Z,6.9
2023-04-04T01:01:51.655Z,6.9
2023-04-04T01:07:43.623Z,6.9
2023-04-04T01:13:19.623Z,6.9
2023-04-04T01:18:55.399Z,6.9
2023-04-04T01:24:31.347Z,6.9
2023-04-04T01:30:22.546Z,6.9
2023-04-04T01:36:15.119Z,6.9
2023-04-04T01:42:07.971Z,6.9
2023-04-04T01:47:44.984Z,6.9
2023-04-04T01:53:23.086Z,6.9
2023-04-04T01:58:59.439Z,6.9
2023-04-04T02:04:51.718Z,6.9
2023-04-04T02:10:27.670Z,6.9
2023-04-04T02:16:03.609Z,6.9
2023-04-04T02:21:58.070Z,6.9
2023-04-04T02:27:18.970Z,6.8
2023-04-04T02:33:10.370Z,6.8
2023-04-04T02:39:02.365Z,6.8
2023-04-04T02:44:53.720Z,6.8
2023-04-04T02:50:51.603Z,6.8
2023-04-04T02:56:43.505Z,6.8
2023-04-04T03:02:20.138Z,6.8
2023-04-04T03:08:12.173Z,6.7
2023-04-04T03:14:04.040Z,6.8
2023-04-04T03:19:40.486Z,6.8
2023-04-04T03:25:16.565Z,6.7
2023-04-04T03:31:08.085Z,6.7
2023-04-04T03:36:59.683Z,6.7
2023-04-04T03:42:51.403Z,6.7
2023-04-04T03:48:43.111Z,6.7
2023-04-04T03:54:34.525Z,6.8
2023-04-04T04:00:11.099Z,6.8
2023-04-04T04:06:05.250Z,6.8
2023-04-04T04:11:56.427Z,6.7
2023-04-04T04:17:48.527Z,6.7
2023-04-04T04:23:40.691Z,6.7
2023-04-04T04:29:31.994Z,6.7
2023-04-04T04:35:08.639Z,6.8
2023-04-04T04:41:02.195Z,6.9
2023-04-04T04:46:54.131Z,6.9
2023-04-04T04:52:46.508Z,7.1
2023-04-04T04:58:38.818Z,7.1
2023-04-04T05:04:31.222Z,7.2
2023-04-04T05:10:22.784Z,7.3
2023-04-04T05:16:14.888Z,7.4
2023-04-04T05:22:07.850Z,7.6
2023-04-04T05:27:58.872Z,7.9
2023-04-04T05:33:50.998Z,8.4
2023-04-04T05:39:44.033Z,9.1
2023-04-04T05:45:20.753Z,9.9
2023-04-04T05:51:12.990Z,10.8
2023-04-04T05:57:03.909Z,11.7
2023-04-04T06:02:57.171Z,13
2023-04-04T06:08:54.939Z,14.1
2023-04-04T06:14:48.621Z,14.1
2023-04-04T06:20:40.791Z,13.6
2023-04-04T06:26:32.521Z,13
2023-04-04T06:32:25.064Z,12.6
2023-04-04T06:38:17.350Z,12.5
2023-04-04T06:44:09.276Z,12.6
2023-04-04T06:49:45.731Z,12.6
2023-04-04T06:55:37.567Z,12.8
2023-04-04T07:01:30.088Z,13.3
2023-04-04T07:07:22.146Z,13.9
2023-04-04T07:13:26.319Z,14.3
2023-04-04T07:19:26.006Z,14.1
2023-04-04T07:25:17.281Z,13.6
2023-04-04T07:31:19.773Z,13.1
2023-04-04T07:37:12.066Z,12.4
2023-04-04T07:43:04.914Z,11.9
2023-04-04T07:48:55.938Z,11.4
2023-04-04T07:54:31.950Z,10.9
2023-04-04T08:00:23.203Z,10.5
2023-04-04T08:06:17.641Z,10.2
2023-04-04T08:12:09.473Z,9.9
2023-04-04T08:18:01.440Z,9.8
2023-04-04T08:23:53.287Z,9.9
2023-04-04T08:29:56.527Z,9.8
2023-04-04T08:36:02.843Z,9.9
2023-04-04T08:41:54.408Z,9.9
2023-04-04T08:47:46.971Z,9.9
2023-04-04T08:53:39.334Z,10.1
2023-04-04T08:59:31.800Z,10.2
2023-04-04T09:05:39.486Z,10.3
2023-04-04T09:11:33.743Z,10.4
2023-04-04T09:17:36.916Z,10.6
2023-04-04T09:23:29.474Z,10.8
2023-04-04T09:29:28.208Z,10.9
2023-04-04T09:35:06.745Z,10.9
2023-04-04T09:41:00.594Z,10.8
2023-04-04T09:47:01.457Z,10.7
2023-04-04T09:53:05.870Z,10.7
2023-04-04T09:59:34.177Z,10.9
2023-04-04T10:05:39.057Z,11.3
2023-04-04T10:11:43.949Z,11.7
2023-04-04T10:17:36.653Z,11.9
2023-04-04T10:23:40.541Z,12.3
2023-04-04T10:29:33.581Z,12.6
2023-04-04T10:35:39.009Z,13.1
2023-04-04T10:41:30.974Z,13.5
2023-04-04T10:47:38.166Z,13.8
2023-04-04T10:53:24.523Z,14.3
2023-04-04T10:59:16.721Z,14.4
2023-04-04T11:05:09.683Z,14.2
2023-04-04T11:11:20.035Z,13.6
2023-04-04T11:17:25.856Z,13.1
2023-04-04T11:23:34.573Z,12.8
2023-04-04T11:29:27.063Z,12.5
2023-04-04T11:35:30.984Z,12.3
2023-04-04T11:41:24.677Z,11.9
2023-04-04T11:47:16.511Z,11.7
2023-04-04T11:52:53.845Z,11.4
2023-04-04T11:58:47.037Z,11.3
2023-04-04T12:04:47.548Z,11.1
2023-04-04T12:10:39.393Z,10.8
2023-04-04T12:16:45.169Z,10.6
2023-04-04T12:22:39.240Z,10.3
2023-04-04T12:28:31.497Z,10.1
2023-04-04T12:34:23.539Z,9.9
2023-04-04T12:40:16.041Z,9.8
2023-04-04T12:46:07.886Z,9.7
2023-04-04T12:52:00.194Z,9.6
2023-04-04T12:58:16.839Z,9.4
2023-04-04T13:04:12.250Z,9.3
2023-04-04T13:10:04.455Z,9.2
2023-04-04T13:15:43.404Z,9.1
2023-04-04T13:21:35.789Z,9
2023-04-04T13:27:27.446Z,8.8
2023-04-04T13:33:20.298Z,8.7
2023-04-04T13:39:12.490Z,8.4
2023-04-04T13:45:04.015Z,8.3
2023-04-04T13:50:58.019Z,8.1
2023-04-04T13:57:13.391Z,7.8
2023-04-04T14:03:06.249Z,7.6
2023-04-04T14:09:18.476Z,7.4
2023-04-04T14:15:11.848Z,7.3
2023-04-04T14:21:05.149Z,7.1
2023-04-04T14:26:56.473Z,6.9
2023-04-04T14:32:34.082Z,6.7
2023-04-04T14:38:28.937Z,6.4
2023-04-04T14:44:20.496Z,6.1
2023-04-04T14:50:13.510Z,5.8
2023-04-04T14:56:05.435Z,5.6
2023-04-04T15:02:15.891Z,5.4
2023-04-04T15:08:11.688Z,5.1
2023-04-04T15:13:48.703Z,4.9
2023-04-04T15:19:25.453Z,4.8
2023-04-04T15:25:17.845Z,4.6
2023-04-04T15:31:11.529Z,4.4
2023-04-04T15:37:06.073Z,4.3
2023-04-04T15:43:03.891Z,4.1
2023-04-04T15:48:40.411Z,4
2023-04-04T15:54:32.107Z,3.9
2023-04-04T16:00:25.027Z,3.8
2023-04-04T16:06:17.563Z,3.6
2023-04-04T16:12:11.501Z,3.4
2023-04-04T16:18:05.165Z,3.3
2023-04-04T16:23:56.763Z,3.2
2023-04-04T16:29:48.450Z,3
2023-04-04T16:35:26.503Z,2.8
2023-04-04T16:41:06.454Z,2.7
2023-04-04T16:47:03.445Z,2.5
2023-04-04T16:52:59.805Z,2.4
2023-04-04T16:58:54.872Z,2.2
2023-04-04T17:04:53.534Z,2.1
2023-04-04T17:10:54.765Z,1.9
2023-04-04T17:16:54.296Z,1.8
2023-04-04T17:22:39.533Z,1.7
2023-04-04T17:28:25.365Z,1.5
2023-04-04T17:34:25.668Z,1.4
2023-04-04T17:40:09.381Z,1.3
2023-04-04T17:45:53.986Z,1.3
2023-04-04T17:51:39.176Z,1.2
2023-04-04T17:57:25.908Z,1.1
2023-04-04T18:03:27.786Z,1
2023-04-04T18:09:24.471Z,1
2023-04-04T18:15:25.063Z,0.9
2023-04-04T18:21:45.399Z,0.9
2023-04-04T18:27:45.385Z,0.8
2023-04-04T18:33:45.608Z,0.8
2023-04-04T18:39:28.944Z,0.7
2023-04-04T18:45:37.553Z,0.6
2023-04-04T18:51:24.722Z,0.6
2023-04-04T18:57:25.565Z,0.6
2023-04-04T19:03:29.829Z,0.5
2023-04-04T19:09:30.025Z,0.5
2023-04-04T19:15:32.777Z,0.4
2023-04-04T19:21:32.779Z,0.4
2023-04-04T19:27:18.022Z,0.4
2023-04-04T19:33:19.852Z,0.4
2023-04-04T19:39:19.734Z,0.4
2023-04-04T19:45:21.181Z,0.4
2023-04-04T19:51:23.014Z,0.3
2023-04-04T19:57:23.887Z,0.3
2023-04-04T20:03:35.302Z,0.3
2023-04-04T20:09:35.692Z,0.3
2023-04-04T20:15:35.496Z,0.3
2023-04-04T20:21:37.371Z,0.2
2023-04-04T20:27:22.757Z,0.2
2023-04-04T20:33:22.319Z,0.2
2023-04-04T20:39:24.357Z,0.1
2023-04-04T20:45:23.973Z,0.1
2023-04-04T20:51:24.930Z,0.1
2023-04-04T20:57:09.704Z,0.1
2023-04-04T21:03:13.050Z,0.1
2023-04-04T21:09:13.162Z,0.1
2023-04-04T21:14:56.317Z,0.1
2023-04-04T21:20:57.077Z,0
2023-04-04T21:26:57.685Z,0
2023-04-04T21:32:56.822Z,0
2023-04-04T21:38:53.895Z,0
2023-04-04T21:44:47.985Z,0
2023-04-04T21:50:42.256Z,0
2023-04-04T21:56:35.347Z,-0.1
2023-04-04T22:02:28.349Z,-0.1
2023-04-04T22:08:13.388Z,-0.1
2023-04-04T22:14:08.304Z,-0.1
2023-04-04T22:20:00.398Z,-0.1
2023-04-04T22:25:51.748Z,-0.1
2023-04-04T22:31:42.474Z,-0.1
2023-04-04T22:37:34.598Z,-0.1
2023-04-04T22:43:26.794Z,-0.1
2023-04-04T22:49:03.629Z,-0.1
2023-04-04T22:54:56.446Z,-0.1
2023-04-04T23:00:48.164Z,-0.1
2023-04-04T23:06:40.147Z,-0.1
2023-04-04T23:12:17.181Z,-0.2
2023-04-04T23:18:08.856Z,-0.1
2023-04-04T23:24:00.567Z,-0.2
2023-04-04T23:29:52.414Z,-0.2
2023-04-04T23:35:44.203Z,-0.2
2023-04-04T23:41:36.038Z,-0.2
2023-04-04T23:47:27.647Z,-0.2
2023-04-04T23:52:48.882Z,-0.2
2023-04-04T23:58:40.860Z,-0.2
